sensor_id;sensor_type;location;lat;lon;timestamp;pressure;altitude;pressure_sealevel;temperature;humidity
8451;BME280;4262;50.980;13.892;2024-01-06T00:01:26;88140.00;;;-142.97;65.60
8451;BME280;4262;50.980;13.892;2024-01-06T00:03:53;88216.91;;;-142.97;65.94
8451;BME280;4262;50.980;13.892;2024-01-06T00:06:19;88145.94;;;-142.97;65.76
8451;BME280;4262;50.980;13.892;2024-01-06T00:08:46;88297.72;;;-142.97;66.29
8451;BME280;4262;50.980;13.892;2024-01-06T00:11:19;88285.91;;;-142.97;66.14
8451;BME280;4262;50.980;13.892;2024-01-06T00:13:47;88242.53;;;-142.97;66.14
8451;BME280;4262;50.980;13.892;2024-01-06T00:16:16;88303.63;;;-142.97;66.27
8451;BME280;4262;50.980;13.892;2024-01-06T00:18:43;88329.28;;;-142.97;66.48
8451;BME280;4262;50.980;13.892;2024-01-06T00:21:10;88352.94;;;-142.97;66.19
8451;BME280;4262;50.980;13.892;2024-01-06T00:23:37;88378.56;;;-142.97;66.56
8451;BME280;4262;50.980;13.892;2024-01-06T00:26:06;88311.53;;;-142.97;66.35
8451;BME280;4262;50.980;13.892;2024-01-06T00:28:34;88254.34;;;-142.97;66.10
8451;BME280;4262;50.980;13.892;2024-01-06T00:31:02;88226.75;;;-142.97;65.91
8451;BME280;4262;50.980;13.892;2024-01-06T00:33:28;88218.88;;;-142.97;66.03
8451;BME280;4262;50.980;13.892;2024-01-06T00:35:55;88145.94;;;-142.97;65.71
8451;BME280;4262;50.980;13.892;2024-01-06T00:38:22;87966.53;;;-142.97;64.92
8451;BME280;4262;50.980;13.892;2024-01-06T00:40:49;88013.84;;;-142.97;64.95
8451;BME280;4262;50.980;13.892;2024-01-06T00:43:16;87994.13;;;-142.97;64.96
8451;BME280;4262;50.980;13.892;2024-01-06T00:45:42;87901.50;;;-142.97;64.38
8451;BME280;4262;50.980;13.892;2024-01-06T00:48:10;87974.44;;;-142.97;64.65
8451;BME280;4262;50.980;13.892;2024-01-06T00:50:40;88043.44;;;-142.97;65.18
8451;BME280;4262;50.980;13.892;2024-01-06T00:53:06;88071.03;;;-142.97;65.16
8451;BME280;4262;50.980;13.892;2024-01-06T00:55:33;88183.38;;;-142.97;65.70
8451;BME280;4262;50.980;13.892;2024-01-06T00:58:00;88149.88;;;-142.97;65.61
8451;BME280;4262;50.980;13.892;2024-01-06T01:00:27;88045.41;;;-142.97;65.02
8451;BME280;4262;50.980;13.892;2024-01-06T01:02:54;87802.94;;;-142.97;64.05
8451;BME280;4262;50.980;13.892;2024-01-06T01:05:22;87846.31;;;-142.97;64.05
8451;BME280;4262;50.980;13.892;2024-01-06T01:07:49;88011.88;;;-142.97;64.87
8451;BME280;4262;50.980;13.892;2024-01-06T01:10:15;88138.03;;;-142.97;65.43
8451;BME280;4262;50.980;13.892;2024-01-06T01:12:42;88240.56;;;-142.97;65.67
8451;BME280;4262;50.980;13.892;2024-01-06T01:15:09;88205.06;;;-142.97;65.75
8451;BME280;4262;50.980;13.892;2024-01-06T01:17:36;88232.66;;;-142.97;66.11
8451;BME280;4262;50.980;13.892;2024-01-06T01:20:05;88368.69;;;-142.97;66.73
8451;BME280;4262;50.980;13.892;2024-01-06T01:22:33;88459.38;;;-142.97;66.95
8451;BME280;4262;50.980;13.892;2024-01-06T01:25:00;88425.88;;;-142.97;66.87
8451;BME280;4262;50.980;13.892;2024-01-06T01:27:31;88518.53;;;-142.97;66.93
8451;BME280;4262;50.980;13.892;2024-01-06T01:29:58;88518.53;;;-142.97;67.26
8451;BME280;4262;50.980;13.892;2024-01-06T01:32:25;88496.84;;;-142.97;66.90
8451;BME280;4262;50.980;13.892;2024-01-06T01:34:51;88463.34;;;-142.97;66.74
8451;BME280;4262;50.980;13.892;2024-01-06T01:37:18;88360.81;;;-142.97;67.14
8451;BME280;4262;50.980;13.892;2024-01-06T01:39:47;88613.19;;;-142.97;67.62
8451;BME280;4262;50.980;13.892;2024-01-06T01:42:14;88676.25;;;-142.97;67.91
8451;BME280;4262;50.980;13.892;2024-01-06T01:44:40;88682.19;;;-142.97;67.62
8451;BME280;4262;50.980;13.892;2024-01-06T01:47:07;88587.53;;;-142.97;67.42
8451;BME280;4262;50.980;13.892;2024-01-06T01:49:35;88421.94;;;-142.97;66.58
8451;BME280;4262;50.980;13.892;2024-01-06T01:52:02;88220.84;;;-142.97;65.98
8451;BME280;4262;50.980;13.892;2024-01-06T01:54:29;88207.03;;;-142.97;65.72
8451;BME280;4262;50.980;13.892;2024-01-06T01:56:58;88264.22;;;-142.97;66.15
8451;BME280;4262;50.980;13.892;2024-01-06T01:59:25;88418.00;;;-142.97;66.58
8451;BME280;4262;50.980;13.892;2024-01-06T02:01:51;88435.72;;;-142.97;67.03
8451;BME280;4262;50.980;13.892;2024-01-06T02:04:18;88439.69;;;-142.97;66.78
8451;BME280;4262;50.980;13.892;2024-01-06T02:06:45;88423.91;;;-142.97;66.15
8451;BME280;4262;50.980;13.892;2024-01-06T02:09:12;88165.66;;;-142.97;66.09
8451;BME280;4262;50.980;13.892;2024-01-06T02:11:39;88248.44;;;-142.97;66.08
8451;BME280;4262;50.980;13.892;2024-01-06T02:14:07;88321.38;;;-142.97;66.29
8451;BME280;4262;50.980;13.892;2024-01-06T02:16:34;88222.81;;;-142.97;65.79
8451;BME280;4262;50.980;13.892;2024-01-06T02:19:00;88088.75;;;-142.97;65.12
8451;BME280;4262;50.980;13.892;2024-01-06T02:21:28;87998.09;;;-142.97;64.60
8451;BME280;4262;50.980;13.892;2024-01-06T02:23:56;88013.84;;;-142.97;64.67
8451;BME280;4262;50.980;13.892;2024-01-06T02:26:51;88015.81;;;-142.97;64.57
8451;BME280;4262;50.980;13.892;2024-01-06T02:29:18;88021.75;;;-142.97;64.74
8451;BME280;4262;50.980;13.892;2024-01-06T02:31:45;87933.03;;;-142.97;64.46
8451;BME280;4262;50.980;13.892;2024-01-06T02:34:12;87836.44;;;-142.97;63.80
8451;BME280;4262;50.980;13.892;2024-01-06T02:36:38;87830.53;;;-142.97;63.92
8451;BME280;4262;50.980;13.892;2024-01-06T02:39:07;87830.53;;;-142.97;63.20
8451;BME280;4262;50.980;13.892;2024-01-06T02:41:34;87706.34;;;-142.97;62.95
8451;BME280;4262;50.980;13.892;2024-01-06T02:44:01;87698.47;;;-142.97;62.61
8451;BME280;4262;50.980;13.892;2024-01-06T02:46:28;87800.97;;;-142.97;63.41
8451;BME280;4262;50.980;13.892;2024-01-06T02:48:57;87893.59;;;-142.97;64.05
8451;BME280;4262;50.980;13.892;2024-01-06T02:51:24;87869.94;;;-142.97;64.02
8451;BME280;4262;50.980;13.892;2024-01-06T02:53:50;87992.16;;;-142.97;64.42
8451;BME280;4262;50.980;13.892;2024-01-06T02:56:19;87958.66;;;-142.97;64.42
8451;BME280;4262;50.980;13.892;2024-01-06T02:58:46;87970.50;;;-142.97;64.63
8451;BME280;4262;50.980;13.892;2024-01-06T03:01:13;87911.34;;;-142.97;64.07
8451;BME280;4262;50.980;13.892;2024-01-06T03:03:40;87824.63;;;-142.97;63.78
8451;BME280;4262;50.980;13.892;2024-01-06T03:06:07;87759.56;;;-142.97;63.20
8451;BME280;4262;50.980;13.892;2024-01-06T03:08:34;87692.56;;;-142.97;62.90
8451;BME280;4262;50.980;13.892;2024-01-06T03:11:01;87662.97;;;-142.97;62.28
8451;BME280;4262;50.980;13.892;2024-01-06T03:13:30;87538.81;;;-142.97;61.50
8451;BME280;4262;50.980;13.892;2024-01-06T03:15:57;87728.03;;;-142.97;62.67
8451;BME280;4262;50.980;13.892;2024-01-06T03:18:27;87722.13;;;-142.97;63.13
8451;BME280;4262;50.980;13.892;2024-01-06T03:20:54;87718.19;;;-142.97;63.27
8451;BME280;4262;50.980;13.892;2024-01-06T03:23:21;87844.31;;;-142.97;63.72
8451;BME280;4262;50.980;13.892;2024-01-06T03:25:47;87822.66;;;-142.97;63.51
8451;BME280;4262;50.980;13.892;2024-01-06T03:28:14;87799.00;;;-142.97;63.15
8451;BME280;4262;50.980;13.892;2024-01-06T03:30:42;87779.28;;;-142.97;63.09
8451;BME280;4262;50.980;13.892;2024-01-06T03:33:09;87751.69;;;-142.97;62.81
8451;BME280;4262;50.980;13.892;2024-01-06T03:35:37;87842.34;;;-142.97;63.90
8451;BME280;4262;50.980;13.892;2024-01-06T03:38:04;87684.66;;;-142.97;63.50
8451;BME280;4262;50.980;13.892;2024-01-06T03:40:30;87856.16;;;-142.97;63.89
8451;BME280;4262;50.980;13.892;2024-01-06T03:42:57;87903.47;;;-142.97;63.69
8451;BME280;4262;50.980;13.892;2024-01-06T03:45:25;87875.88;;;-142.97;64.03
8451;BME280;4262;50.980;13.892;2024-01-06T03:47:54;87866.00;;;-142.97;63.78
8451;BME280;4262;50.980;13.892;2024-01-06T03:50:20;87931.06;;;-142.97;64.38
8451;BME280;4262;50.980;13.892;2024-01-06T03:52:47;88033.56;;;-142.97;64.37
8451;BME280;4262;50.980;13.892;2024-01-06T03:55:15;88124.25;;;-142.97;65.29
8451;BME280;4262;50.980;13.892;2024-01-06T03:57:42;88191.28;;;-142.97;65.61
8451;BME280;4262;50.980;13.892;2024-01-06T04:00:10;88238.59;;;-142.97;65.61
8451;BME280;4262;50.980;13.892;2024-01-06T04:02:37;88264.22;;;-142.97;65.74
8451;BME280;4262;50.980;13.892;2024-01-06T04:05:06;88163.69;;;-142.97;65.61
8451;BME280;4262;50.980;13.892;2024-01-06T04:07:35;88069.06;;;-142.97;64.77
8451;BME280;4262;50.980;13.892;2024-01-06T04:10:04;88045.41;;;-142.97;65.18
8451;BME280;4262;50.980;13.892;2024-01-06T04:12:31;88106.50;;;-142.97;65.38
8451;BME280;4262;50.980;13.892;2024-01-06T04:14:58;88244.50;;;-142.97;65.09
8451;BME280;4262;50.980;13.892;2024-01-06T04:17:25;88134.09;;;-142.97;64.99
8451;BME280;4262;50.980;13.892;2024-01-06T04:19:52;88031.59;;;-142.97;64.48
8451;BME280;4262;50.980;13.892;2024-01-06T04:22:21;88025.69;;;-142.97;64.84
8451;BME280;4262;50.980;13.892;2024-01-06T04:24:48;88073.00;;;-142.97;64.43
8451;BME280;4262;50.980;13.892;2024-01-06T04:27:15;87954.72;;;-142.97;64.36
8451;BME280;4262;50.980;13.892;2024-01-06T04:29:42;87917.25;;;-142.97;64.00
8451;BME280;4262;50.980;13.892;2024-01-06T04:32:09;87948.81;;;-142.97;63.88
8451;BME280;4262;50.980;13.892;2024-01-06T04:34:36;87877.84;;;-142.97;63.54
8451;BME280;4262;50.980;13.892;2024-01-06T04:37:03;87895.56;;;-142.97;64.03
8451;BME280;4262;50.980;13.892;2024-01-06T04:39:31;87950.78;;;-142.97;64.08
8451;BME280;4262;50.980;13.892;2024-01-06T04:41:58;87925.16;;;-142.97;64.12
8451;BME280;4262;50.980;13.892;2024-01-06T04:44:24;87789.13;;;-142.97;63.05
8451;BME280;4262;50.980;13.892;2024-01-06T04:46:51;87753.66;;;-142.97;62.85
8451;BME280;4262;50.980;13.892;2024-01-06T04:49:18;87866.00;;;-142.97;63.43
8451;BME280;4262;50.980;13.892;2024-01-06T04:51:45;87944.84;;;-142.97;63.85
8451;BME280;4262;50.980;13.892;2024-01-06T04:54:12;87936.97;;;-142.97;63.98
8451;BME280;4262;50.980;13.892;2024-01-06T04:56:40;87927.13;;;-142.97;64.04
8451;BME280;4262;50.980;13.892;2024-01-06T04:59:07;87923.19;;;-142.97;64.15
8451;BME280;4262;50.980;13.892;2024-01-06T05:01:36;87897.56;;;-142.97;63.72
8451;BME280;4262;50.980;13.892;2024-01-06T05:04:03;87901.50;;;-142.97;64.05
8451;BME280;4262;50.980;13.892;2024-01-06T05:06:30;87950.78;;;-142.97;64.26
8451;BME280;4262;50.980;13.892;2024-01-06T05:08:57;87944.84;;;-142.97;64.07
8451;BME280;4262;50.980;13.892;2024-01-06T05:11:24;87883.75;;;-142.97;63.85
8451;BME280;4262;50.980;13.892;2024-01-06T05:13:52;87891.63;;;-142.97;63.79
8451;BME280;4262;50.980;13.892;2024-01-06T05:16:19;87864.03;;;-142.97;63.52
8451;BME280;4262;50.980;13.892;2024-01-06T05:18:46;87828.56;;;-142.97;63.30
8451;BME280;4262;50.980;13.892;2024-01-06T05:21:13;87986.25;;;-142.97;64.14
8451;BME280;4262;50.980;13.892;2024-01-06T05:24:02;87925.16;;;-142.97;64.01
8451;BME280;4262;50.980;13.892;2024-01-06T05:26:30;87883.75;;;-142.97;63.68
8451;BME280;4262;50.980;13.892;2024-01-06T05:28:58;87812.78;;;-142.97;63.44
8451;BME280;4262;50.980;13.892;2024-01-06T05:31:25;87822.66;;;-142.97;63.19
8451;BME280;4262;50.980;13.892;2024-01-06T05:33:52;87826.59;;;-142.97;63.25
8451;BME280;4262;50.980;13.892;2024-01-06T05:36:19;87856.16;;;-142.97;63.66
8451;BME280;4262;50.980;13.892;2024-01-06T05:38:46;87897.56;;;-142.97;63.76
8451;BME280;4262;50.980;13.892;2024-01-06T05:41:13;87929.09;;;-142.97;64.12
8451;BME280;4262;50.980;13.892;2024-01-06T05:43:39;88029.63;;;-142.97;64.23
8451;BME280;4262;50.980;13.892;2024-01-06T05:46:08;88059.19;;;-142.97;65.04
8451;BME280;4262;50.980;13.892;2024-01-06T05:48:36;88179.44;;;-142.97;64.73
8451;BME280;4262;50.980;13.892;2024-01-06T05:51:04;88053.28;;;-142.97;64.70
8451;BME280;4262;50.980;13.892;2024-01-06T05:53:32;88078.91;;;-142.97;65.05
8451;BME280;4262;50.980;13.892;2024-01-06T05:55:59;87996.13;;;-142.97;64.42
8451;BME280;4262;50.980;13.892;2024-01-06T05:58:26;87954.72;;;-142.97;64.14
8451;BME280;4262;50.980;13.892;2024-01-06T06:00:53;88005.97;;;-142.97;64.68
8451;BME280;4262;50.980;13.892;2024-01-06T06:03:21;87956.69;;;-142.97;64.32
8451;BME280;4262;50.980;13.892;2024-01-06T06:05:48;88002.03;;;-142.97;64.42
8451;BME280;4262;50.980;13.892;2024-01-06T06:08:14;88039.47;;;-142.97;64.99
8451;BME280;4262;50.980;13.892;2024-01-06T06:10:41;88092.72;;;-142.97;65.34
8451;BME280;4262;50.980;13.892;2024-01-06T06:13:25;87998.09;;;-142.97;65.24
8451;BME280;4262;50.980;13.892;2024-01-06T06:15:52;88084.81;;;-142.97;65.18
8451;BME280;4262;50.980;13.892;2024-01-06T06:18:18;88051.31;;;-142.97;64.95
8451;BME280;4262;50.980;13.892;2024-01-06T06:20:47;88002.03;;;-142.97;64.52
8451;BME280;4262;50.980;13.892;2024-01-06T06:23:13;87974.44;;;-142.97;64.49
8451;BME280;4262;50.980;13.892;2024-01-06T06:25:40;88021.75;;;-142.97;64.95
8451;BME280;4262;50.980;13.892;2024-01-06T06:28:07;88002.03;;;-142.97;64.42
8451;BME280;4262;50.980;13.892;2024-01-06T06:30:34;88102.56;;;-142.97;65.49
8451;BME280;4262;50.980;13.892;2024-01-06T06:33:01;88136.06;;;-142.97;65.01
8451;BME280;4262;50.980;13.892;2024-01-06T06:35:27;88061.16;;;-142.97;64.99
8451;BME280;4262;50.980;13.892;2024-01-06T06:37:55;88049.34;;;-142.97;64.72
8451;BME280;4262;50.980;13.892;2024-01-06T06:40:22;88067.06;;;-142.97;64.80
8451;BME280;4262;50.980;13.892;2024-01-06T06:42:48;87994.13;;;-142.97;64.26
8451;BME280;4262;50.980;13.892;2024-01-06T06:45:15;87936.97;;;-142.97;64.28
8451;BME280;4262;50.980;13.892;2024-01-06T06:47:44;87869.94;;;-142.97;64.05
8451;BME280;4262;50.980;13.892;2024-01-06T06:50:11;87765.47;;;-142.97;63.64
8451;BME280;4262;50.980;13.892;2024-01-06T06:52:38;87899.53;;;-142.97;64.04
8451;BME280;4262;50.980;13.892;2024-01-06T06:55:07;87940.91;;;-142.97;64.18
8451;BME280;4262;50.980;13.892;2024-01-06T06:57:34;87940.91;;;-142.97;64.32
8451;BME280;4262;50.980;13.892;2024-01-06T07:00:01;87873.91;;;-142.97;63.99
8451;BME280;4262;50.980;13.892;2024-01-06T07:02:28;87856.16;;;-142.97;63.82
8451;BME280;4262;50.980;13.892;2024-01-06T07:04:55;87933.03;;;-142.97;64.20
8451;BME280;4262;50.980;13.892;2024-01-06T07:07:22;87808.84;;;-142.97;63.78
8451;BME280;4262;50.980;13.892;2024-01-06T07:09:48;87785.19;;;-142.97;63.50
8451;BME280;4262;50.980;13.892;2024-01-06T07:12:17;87897.56;;;-142.97;64.25
8451;BME280;4262;50.980;13.892;2024-01-06T07:14:43;87832.50;;;-142.97;63.97
8451;BME280;4262;50.980;13.892;2024-01-06T07:17:10;87832.50;;;-142.97;64.06
8451;BME280;4262;50.980;13.892;2024-01-06T07:19:37;87866.00;;;-142.97;63.90
8451;BME280;4262;50.980;13.892;2024-01-06T07:22:04;87893.59;;;-142.97;64.29
8451;BME280;4262;50.980;13.892;2024-01-06T07:24:31;87887.69;;;-142.97;64.24
8451;BME280;4262;50.980;13.892;2024-01-06T07:26:58;87862.06;;;-142.97;64.22
8451;BME280;4262;50.980;13.892;2024-01-06T07:29:26;87844.31;;;-142.97;63.91
8451;BME280;4262;50.980;13.892;2024-01-06T07:31:52;87885.72;;;-142.97;64.31
8451;BME280;4262;50.980;13.892;2024-01-06T07:34:19;87838.41;;;-142.97;63.93
8451;BME280;4262;50.980;13.892;2024-01-06T07:36:46;87889.66;;;-142.97;64.14
8451;BME280;4262;50.980;13.892;2024-01-06T07:39:13;87791.09;;;-142.97;63.52
8451;BME280;4262;50.980;13.892;2024-01-06T07:41:39;87753.66;;;-142.97;63.57
8451;BME280;4262;50.980;13.892;2024-01-06T07:44:08;87824.63;;;-142.97;63.80
8451;BME280;4262;50.980;13.892;2024-01-06T07:46:36;87873.91;;;-142.97;64.10
8451;BME280;4262;50.980;13.892;2024-01-06T07:49:04;87804.91;;;-142.97;63.93
8451;BME280;4262;50.980;13.892;2024-01-06T07:51:31;87769.44;;;-142.97;63.56
8451;BME280;4262;50.980;13.892;2024-01-06T07:54:01;87755.63;;;-142.97;63.49
8451;BME280;4262;50.980;13.892;2024-01-06T07:56:28;87816.72;;;-142.97;63.54
8451;BME280;4262;50.980;13.892;2024-01-06T07:58:55;87747.75;;;-142.97;63.60
8451;BME280;4262;50.980;13.892;2024-01-06T08:01:21;87645.25;;;-142.97;63.08
8451;BME280;4262;50.980;13.892;2024-01-06T08:03:50;87617.66;;;-142.97;62.90
8451;BME280;4262;50.980;13.892;2024-01-06T08:06:16;87619.63;;;-142.97;63.02
8451;BME280;4262;50.980;13.892;2024-01-06T08:08:44;87664.94;;;-142.97;63.14
8451;BME280;4262;50.980;13.892;2024-01-06T08:11:13;87698.47;;;-142.97;63.20
8451;BME280;4262;50.980;13.892;2024-01-06T08:13:42;87564.44;;;-142.97;62.55
8451;BME280;4262;50.980;13.892;2024-01-06T08:16:09;87538.81;;;-142.97;62.40
8451;BME280;4262;50.980;13.892;2024-01-06T08:18:36;87564.44;;;-142.97;62.45
8451;BME280;4262;50.980;13.892;2024-01-06T08:21:04;87519.09;;;-142.97;62.32
8451;BME280;4262;50.980;13.892;2024-01-06T08:23:31;87544.72;;;-142.97;62.49
8451;BME280;4262;50.980;13.892;2024-01-06T08:25:58;87544.72;;;-142.97;62.65
8451;BME280;4262;50.980;13.892;2024-01-06T08:28:25;87540.78;;;-142.97;62.47
8451;BME280;4262;50.980;13.892;2024-01-06T08:30:52;87542.75;;;-142.97;62.19
8451;BME280;4262;50.980;13.892;2024-01-06T08:33:21;87414.63;;;-142.97;62.60
8451;BME280;4262;50.980;13.892;2024-01-06T08:35:48;87489.53;;;-142.97;62.12
8451;BME280;4262;50.980;13.892;2024-01-06T08:38:16;87489.53;;;-142.97;62.01
8451;BME280;4262;50.980;13.892;2024-01-06T08:40:44;87603.84;;;-142.97;62.96
8451;BME280;4262;50.980;13.892;2024-01-06T08:43:13;87668.91;;;-142.97;63.41
8451;BME280;4262;50.980;13.892;2024-01-06T08:45:40;87570.34;;;-142.97;62.62
8451;BME280;4262;50.980;13.892;2024-01-06T08:48:07;87686.63;;;-142.97;62.81
8451;BME280;4262;50.980;13.892;2024-01-06T08:50:34;87627.50;;;-142.97;62.79
8451;BME280;4262;50.980;13.892;2024-01-06T08:53:01;87651.16;;;-142.97;63.27
8451;BME280;4262;50.980;13.892;2024-01-06T08:55:29;87757.59;;;-142.97;63.65
8451;BME280;4262;50.980;13.892;2024-01-06T08:57:56;87735.91;;;-142.97;63.64
8451;BME280;4262;50.980;13.892;2024-01-06T09:00:23;87666.94;;;-142.97;63.32
8451;BME280;4262;50.980;13.892;2024-01-06T09:02:49;87680.72;;;-142.97;63.50
8451;BME280;4262;50.980;13.892;2024-01-06T09:05:16;87560.50;;;-142.97;62.81
8451;BME280;4262;50.980;13.892;2024-01-06T09:07:43;87450.13;;;-142.97;62.04
8451;BME280;4262;50.980;13.892;2024-01-06T09:10:14;87605.81;;;-142.97;63.12
8451;BME280;4262;50.980;13.892;2024-01-06T09:12:42;87552.59;;;-142.97;62.35
8451;BME280;4262;50.980;13.892;2024-01-06T09:15:09;87568.38;;;-142.97;62.86
8451;BME280;4262;50.980;13.892;2024-01-06T09:17:36;87489.53;;;-142.97;62.70
8451;BME280;4262;50.980;13.892;2024-01-06T09:20:03;87414.63;;;-142.97;62.14
8451;BME280;4262;50.980;13.892;2024-01-06T09:22:30;87501.34;;;-142.97;62.60
8451;BME280;4262;50.980;13.892;2024-01-06T09:24:58;87556.53;;;-142.97;62.74
8451;BME280;4262;50.980;13.892;2024-01-06T09:27:25;87568.38;;;-142.97;63.08
8451;BME280;4262;50.980;13.892;2024-01-06T09:29:53;87517.13;;;-142.97;62.53
8451;BME280;4262;50.980;13.892;2024-01-06T09:32:20;87525.00;;;-142.97;62.67
8451;BME280;4262;50.980;13.892;2024-01-06T09:34:51;87625.53;;;-142.97;63.37
8451;BME280;4262;50.980;13.892;2024-01-06T09:37:18;87668.91;;;-142.97;63.81
8451;BME280;4262;50.980;13.892;2024-01-06T09:39:45;87661.00;;;-142.97;63.59
8451;BME280;4262;50.980;13.892;2024-01-06T09:42:12;87603.84;;;-142.97;63.45
8451;BME280;4262;50.980;13.892;2024-01-06T09:44:38;87590.06;;;-142.97;63.05
8451;BME280;4262;50.980;13.892;2024-01-06T09:47:10;87554.56;;;-142.97;62.94
8451;BME280;4262;50.980;13.892;2024-01-06T09:49:38;87718.19;;;-142.97;63.66
8451;BME280;4262;50.980;13.892;2024-01-06T09:52:12;87507.28;;;-142.97;62.76
8451;BME280;4262;50.980;13.892;2024-01-06T09:54:47;87485.59;;;-142.97;62.91
8451;BME280;4262;50.980;13.892;2024-01-06T09:57:17;87351.56;;;-142.97;62.35
8451;BME280;4262;50.980;13.892;2024-01-06T09:59:44;87511.22;;;-142.97;62.91
8451;BME280;4262;50.980;13.892;2024-01-06T10:02:14;87540.78;;;-142.97;63.01
8451;BME280;4262;50.980;13.892;2024-01-06T10:04:42;87536.84;;;-142.97;63.05
8451;BME280;4262;50.980;13.892;2024-01-06T10:07:09;87532.91;;;-142.97;63.08
8451;BME280;4262;50.980;13.892;2024-01-06T10:09:38;87412.66;;;-142.97;62.92
8451;BME280;4262;50.980;13.892;2024-01-06T10:12:06;87357.47;;;-142.97;62.07
8451;BME280;4262;50.980;13.892;2024-01-06T10:14:33;87296.38;;;-142.97;62.08
8451;BME280;4262;50.980;13.892;2024-01-06T10:16:59;87225.44;;;-142.97;61.85
8451;BME280;4262;50.980;13.892;2024-01-06T10:19:27;87182.06;;;-142.97;61.69
8451;BME280;4262;50.980;13.892;2024-01-06T10:21:54;87063.81;;;-142.97;60.74
8451;BME280;4262;50.980;13.892;2024-01-06T10:24:21;86785.97;;;-142.97;60.38
8451;BME280;4262;50.980;13.892;2024-01-06T10:26:48;86947.56;;;-142.97;60.25
8451;BME280;4262;50.980;13.892;2024-01-06T10:29:15;86827.34;;;-142.97;58.73
8451;BME280;4262;50.980;13.892;2024-01-06T10:31:42;86705.16;;;-142.97;58.71
8451;BME280;4262;50.980;13.892;2024-01-06T10:34:09;86565.25;;;-142.97;57.43
8451;BME280;4262;50.980;13.892;2024-01-06T10:36:37;86480.53;;;-142.97;56.39
8451;BME280;4262;50.980;13.892;2024-01-06T10:39:04;86590.88;;;-142.97;55.06
8451;BME280;4262;50.980;13.892;2024-01-06T10:41:34;86590.88;;;-142.97;55.54
8451;BME280;4262;50.980;13.892;2024-01-06T10:44:04;86512.06;;;-142.97;55.13
8451;BME280;4262;50.980;13.892;2024-01-06T10:46:32;86387.94;;;-142.97;55.21
8451;BME280;4262;50.980;13.892;2024-01-06T10:49:01;86360.34;;;-142.97;54.26
8451;BME280;4262;50.980;13.892;2024-01-06T10:51:30;86362.31;;;-142.97;54.48
8451;BME280;4262;50.980;13.892;2024-01-06T10:54:00;86344.59;;;-142.97;53.20
8451;BME280;4262;50.980;13.892;2024-01-06T10:56:29;86403.69;;;-142.97;52.84
8451;BME280;4262;50.980;13.892;2024-01-06T10:58:56;86437.19;;;-142.97;53.19
8451;BME280;4262;50.980;13.892;2024-01-06T11:01:24;86427.34;;;-142.97;53.92
8451;BME280;4262;50.980;13.892;2024-01-06T11:03:52;86413.53;;;-142.97;53.08
8451;BME280;4262;50.980;13.892;2024-01-06T11:06:20;86472.66;;;-142.97;54.12
8451;BME280;4262;50.980;13.892;2024-01-06T11:08:51;86484.47;;;-142.97;53.70
8451;BME280;4262;50.980;13.892;2024-01-06T11:11:21;86527.84;;;-142.97;53.73
8451;BME280;4262;50.980;13.892;2024-01-06T11:13:49;86602.72;;;-142.97;54.24
8451;BME280;4262;50.980;13.892;2024-01-06T11:16:36;86606.66;;;-142.97;54.86
8451;BME280;4262;50.980;13.892;2024-01-06T11:19:03;86551.47;;;-142.97;54.97
8451;BME280;4262;50.980;13.892;2024-01-06T11:21:50;86496.31;;;-142.97;54.02
8451;BME280;4262;50.980;13.892;2024-01-06T11:24:18;86484.47;;;-142.97;53.63
8451;BME280;4262;50.980;13.892;2024-01-06T11:26:51;86397.78;;;-142.97;53.21
8451;BME280;4262;50.980;13.892;2024-01-06T11:29:19;86470.69;;;-142.97;53.21
8451;BME280;4262;50.980;13.892;2024-01-06T11:32:20;86594.81;;;-142.97;53.68
8451;BME280;4262;50.980;13.892;2024-01-06T11:34:48;86516.00;;;-142.97;54.09
8451;BME280;4262;50.980;13.892;2024-01-06T11:37:18;86474.63;;;-142.97;53.91
8451;BME280;4262;50.980;13.892;2024-01-06T11:39:45;86490.38;;;-142.97;53.42
8451;BME280;4262;50.980;13.892;2024-01-06T11:42:13;86458.88;;;-142.97;53.60
8451;BME280;4262;50.980;13.892;2024-01-06T11:44:43;86523.88;;;-142.97;54.26
8451;BME280;4262;50.980;13.892;2024-01-06T11:47:12;86397.78;;;-142.97;52.98
8451;BME280;4262;50.980;13.892;2024-01-06T11:49:43;86417.50;;;-142.97;53.03
8451;BME280;4262;50.980;13.892;2024-01-06T11:52:11;86397.78;;;-142.97;52.55
8451;BME280;4262;50.980;13.892;2024-01-06T11:54:39;86439.16;;;-142.97;52.65
8451;BME280;4262;50.980;13.892;2024-01-06T11:57:07;86474.63;;;-142.97;52.60
8451;BME280;4262;50.980;13.892;2024-01-06T11:59:36;86496.31;;;-142.97;52.69
8451;BME280;4262;50.980;13.892;2024-01-06T12:02:03;86553.44;;;-142.97;53.86
8451;BME280;4262;50.980;13.892;2024-01-06T12:04:31;86653.94;;;-142.97;55.64
8451;BME280;4262;50.980;13.892;2024-01-06T12:07:05;86598.75;;;-142.97;55.01
8451;BME280;4262;50.980;13.892;2024-01-06T12:09:32;86571.19;;;-142.97;54.83
8451;BME280;4262;50.980;13.892;2024-01-06T12:12:03;86577.09;;;-142.97;54.27
8451;BME280;4262;50.980;13.892;2024-01-06T12:14:31;86650.00;;;-142.97;55.21
8451;BME280;4262;50.980;13.892;2024-01-06T12:17:00;86657.88;;;-142.97;55.00
8451;BME280;4262;50.980;13.892;2024-01-06T12:19:29;86740.63;;;-142.97;55.57
8451;BME280;4262;50.980;13.892;2024-01-06T12:21:56;86713.06;;;-142.97;55.88
8451;BME280;4262;50.980;13.892;2024-01-06T12:24:23;86845.09;;;-142.97;56.44
8451;BME280;4262;50.980;13.892;2024-01-06T12:26:50;86845.09;;;-142.97;58.15
8451;BME280;4262;50.980;13.892;2024-01-06T12:29:17;86833.25;;;-142.97;57.48
8451;BME280;4262;50.980;13.892;2024-01-06T12:31:44;86906.16;;;-142.97;58.41
8451;BME280;4262;50.980;13.892;2024-01-06T12:34:13;87008.66;;;-142.97;59.64
8451;BME280;4262;50.980;13.892;2024-01-06T12:36:41;86994.84;;;-142.97;58.95
8451;BME280;4262;50.980;13.892;2024-01-06T12:39:11;86945.59;;;-142.97;59.16
8451;BME280;4262;50.980;13.892;2024-01-06T12:41:39;86985.00;;;-142.97;59.48
8451;BME280;4262;50.980;13.892;2024-01-06T12:44:07;86969.22;;;-142.97;59.00
8451;BME280;4262;50.980;13.892;2024-01-06T12:46:34;86880.56;;;-142.97;58.66
8451;BME280;4262;50.980;13.892;2024-01-06T12:49:02;86849.03;;;-142.97;57.81
8451;BME280;4262;50.980;13.892;2024-01-06T12:51:30;86916.03;;;-142.97;58.51
8451;BME280;4262;50.980;13.892;2024-01-06T12:53:57;86866.75;;;-142.97;57.30